Pagrindinis puslapis
METAR-TAF:

METAR-TAF

Oro uostai :

Tulkanas, Ekvadoras

platuma: 00-48-34N, ilguma: 077-42-29W, Aukštis: 2941 m

Dabartinis oras

Ataskaita buvo paskelbta 4 valandos ir 44 minutes, ne 21:00 UTC
Vėjas 10 kt iš Rytų
Temperatūra 15°C
Drėgmė 67%
Slėgis 1029 hPa
Matomumas 10 km arba daugiau
Su prošvaistėmis ne aukštis 2000 ft

METAR: SETU 242100Z 10010KT 9999 BKN020 15/09 Q1029

Laikas: 20:44 (01:44 UTC)


TAF: trūkstamas

Orai ataskaitas ir orų prognozės (METAR, TAF).

turimą stotys yra geltonos ir raudonos taškus žemėlapyje.

Perkelti pele per norėdami pamatyti stoties vardą.

Tada spustelėkite, norėdami matyti oro stebėjimo ir prognozės.

Norėdami pakeisti žemėlapį: spustelėkite ant žalios mygtukų su juodo kryžiaus žemyn,; žalią mygtuką su brūkšneliu, jei norite nutolinti; arba žalių rodyklių gretimoms žemėlapius.


METAR-TAF: